Date,TemperatureHighF,TemperatureAvgF,TemperatureLowF,DewpointHighF,DewpointAvgF,DewpointLowF,HumidityHigh,HumidityAvg,HumidityLow,PressureMaxIn,PressureMinIn,WindSpeedMaxMPH,WindSpeedAvgMPH,GustSpeedMaxMPH,PrecipitationSumIn
2013-1-12,73.0,70.9,69.0,67.0,65.6,64.0,89,83,77,29.90,29.76,11,7,22,0.00
2013-1-13,71.0,44.5,30.0,64.0,42.2,27.0,97,92,79,30.27,29.75,14,6,25,2.59
2013-1-14,31.0,28.9,26.0,27.0,24.7,22.0,89,84,80,30.41,30.27,13,6,23,0.01
2013-1-15,32.0,29.5,27.0,30.0,27.0,24.0,96,91,86,30.28,30.06,10,5,16,0.00
2013-1-16,33.0,31.5,30.0,31.0,29.8,28.0,96,94,90,30.17,30.05,5,2,9,0.00
2013-1-17,47.0,36.7,31.0,37.0,31.6,27.0,95,82,64,30.47,30.11,15,4,21,0.01
2013-1-18,53.0,38.9,24.0,31.0,26.3,22.0,96,64,29,30.57,30.35,6,1,12,0.01
2013-1-19,59.0,47.9,38.0,33.0,29.8,27.0,75,52,30,30.35,30.15,11,5,19,0.00
2013-1-20,55.0,45.6,35.0,36.0,30.3,20.0,90,57,33,30.28,30.17,8,2,16,0.00
2013-1-21,37.0,32.0,24.0,22.0,18.1,13.0,80,58,36,30.35,30.19,15,4,25,0.00
2013-1-22,34.0,28.5,23.0,20.0,12.8,5.0,85,52,36,30.44,30.31,5,2,12,0.00
2013-1-23,56.0,40.3,26.0,38.0,27.6,15.0,89,61,45,30.36,30.16,6,2,13,0.00
2013-1-24,39.0,35.7,31.0,35.0,19.9,10.0,95,54,32,30.47,30.22,12,5,20,0.00
2013-1-25,46.0,35.8,29.0,39.0,29.8,16.0,97,81,44,30.25,30.03,8,2,14,0.37
2013-1-26,53.0,38.8,27.0,37.0,30.4,26.0,98,75,43,30.34,30.24,5,1,10,0.01
2013-1-27,58.0,48.8,40.0,45.0,38.7,30.0,82,68,60,30.29,30.14,9,4,15,0.00
2013-1-28,71.0,60.2,54.0,60.0,52.8,42.0,91,77,59,30.18,30.07,9,6,17,0.01
2013-1-29,72.0,65.7,59.0,64.0,59.8,55.0,92,82,70,30.08,29.49,16,8,30,0.01
2013-1-30,72.0,49.6,36.0,64.0,43.3,24.0,98,80,62,29.99,29.47,18,8,33,2.05
2013-1-31,51.0,41.6,29.0,34.0,27.7,21.0,94,60,37,30.31,29.99,13,7,23,0.01
2013-2-1,33.0,25.5,18.0,23.0,13.1,8.0,81,59,39,30.54,30.31,11,2,21,0.01
2013-2-2,50.0,37.7,26.0,33.0,25.3,16.0,77,61,45,30.31,30.10,8,3,15,0.00
2013-2-3,51.0,43.2,34.0,33.0,30.2,26.0,80,62,41,30.16,30.06,11,4,22,0.00
2013-2-4,58.0,45.5,35.0,43.0,33.2,27.0,83,64,35,30.12,29.91,9,3,20,0.01
2013-2-5,60.0,48.9,39.0,48.0,43.1,37.0,94,81,52,30.06,29.93,6,1,10,0.01
2013-2-6,60.0,48.4,36.0,41.0,35.3,30.0,98,65,38,30.23,30.06,6,2,11,0.00
2013-2-7,68.0,58.4,50.0,53.0,43.8,31.0,87,59,48,30.07,29.87,8,2,14,0.13
2013-2-8,56.0,43.6,35.0,54.0,39.0,30.0,95,84,72,30.33,29.89,12,5,22,0.62
2013-2-9,53.0,42.4,32.0,35.0,30.9,28.0,86,66,42,30.35,30.07,7,3,15,0.00
2013-2-10,59.0,54.0,49.0,57.0,46.3,36.0,95,77,54,30.07,29.77,14,6,25,0.68
2013-2-11,58.0,49.0,42.0,56.0,35.4,29.0,92,61,39,30.19,29.92,6,3,19,0.02
2013-2-12,53.0,45.8,34.0,39.0,35.5,32.0,96,69,46,30.16,29.78,7,2,15,0.03
2013-2-13,44.0,40.6,39.0,40.0,37.7,36.0,95,89,79,30.01,29.76,8,4,15,0.14
2013-2-14,62.0,48.4,36.0,40.0,34.3,27.0,93,63,27,30.03,29.97,9,4,18,0.02
2013-2-15,51.0,43.9,34.0,37.0,30.5,19.0,81,60,40,30.20,30.03,10,4,20,0.00
2013-2-16,38.0,32.7,26.0,23.0,17.7,13.0,80,55,36,30.24,30.18,11,3,19,0.00
2013-2-17,52.0,40.0,26.0,25.0,20.6,16.0,71,47,29,30.27,30.09,7,4,14,0.00
2013-2-18,61.0,50.7,42.0,50.0,38.3,26.0,95,64,43,30.10,29.77,14,8,34,0.74
2013-2-19,52.0,40.4,35.0,49.0,28.8,20.0,88,65,37,30.26,29.89,11,5,25,0.66
2013-2-20,35.0,31.8,27.0,20.0,15.9,13.0,60,52,45,30.37,30.20,7,3,12,0.00
2013-2-21,45.0,36.1,30.0,43.0,28.4,19.0,97,75,51,30.23,29.78,12,5,19,0.82
2013-2-22,46.0,42.6,38.0,45.0,39.6,34.0,97,89,80,30.07,29.84,7,3,12,0.12
2013-2-23,47.0,37.6,29.0,34.0,29.5,27.0,92,74,51,30.06,29.96,7,2,12,0.00
2013-2-24,57.0,42.0,27.0,29.0,26.5,23.0,95,60,27,30.14,29.96,6,2,13,0.00
2013-2-25,64.0,51.6,41.0,48.0,33.4,25.0,88,52,25,29.97,29.39,16,6,35,0.16
2013-2-26,52.0,45.8,40.0,51.0,41.4,34.0,95,85,70,29.76,29.36,13,7,23,0.45
2013-2-27,41.0,39.9,39.0,35.0,32.8,29.0,82,76,66,29.94,29.76,10,5,19,0.06
2013-2-28,40.0,37.6,35.0,33.0,29.6,27.0,86,73,63,30.09,29.93,9,4,15,0.00
2013-3-1,37.0,34.6,33.0,34.0,31.8,30.0,95,89,78,30.13,30.06,9,4,15,0.03
2013-3-2,34.0,31.7,31.0,31.0,27.3,21.0,94,84,72,30.22,30.10,9,5,16,0.02
2013-3-3,44.0,34.3,22.0,27.0,21.3,18.0,88,61,35,30.22,30.08,8,2,14,0.00
2013-3-4,67.0,51.3,35.0,44.0,29.4,21.0,70,45,26,30.10,29.76,13,6,24,0.00
2013-3-5,61.0,48.4,36.0,55.0,39.5,21.0,95,72,53,30.13,29.75,15,8,26,0.47
2013-3-6,41.0,35.7,28.0,28.0,25.2,22.0,90,66,56,30.33,30.13,12,6,24,0.03
2013-3-7,51.0,37.9,27.0,31.0,28.3,25.0,96,71,43,30.39,30.30,7,2,13,0.00
2013-3-8,64.0,46.2,30.0,32.0,26.8,18.0,89,53,17,30.40,30.21,6,2,11,0.00
2013-3-9,71.0,57.8,48.0,37.0,30.3,24.0,49,36,23,30.22,29.95,9,4,21,0.00
2013-3-10,68.0,59.5,51.0,55.0,45.4,37.0,97,63,41,29.97,29.74,15,7,30,1.48
2013-3-11,53.0,42.9,32.0,52.0,38.0,30.0,96,83,65,30.03,29.80,10,5,18,1.74
2013-3-12,54.0,40.1,27.0,32.0,28.2,22.0,97,67,33,30.18,30.02,9,2,13,0.01
2013-3-13,45.0,40.2,30.0,32.0,25.1,21.0,79,55,40,30.41,30.18,12,5,24,0.01
2013-3-14,57.0,42.5,26.0,35.0,25.0,21.0,94,55,27,30.43,30.16,6,2,10,0.00
2013-3-15,78.0,62.6,47.0,49.0,41.7,31.0,62,47,32,30.16,29.86,13,6,22,0.00
2013-3-16,75.0,68.4,57.0,54.0,49.6,45.0,69,52,41,29.91,29.83,13,6,27,0.00
2013-3-17,63.0,54.3,48.0,53.0,47.0,42.0,90,77,69,29.94,29.70,8,4,16,0.00
2013-3-18,67.0,54.6,41.0,60.0,50.1,40.0,97,85,68,30.03,29.65,11,5,21,1.78
2013-3-19,55.0,45.6,34.0,40.0,28.1,15.0,98,58,21,30.20,30.03,8,3,13,0.19
2013-3-20,51.0,43.3,32.0,34.0,27.0,14.0,83,54,25,30.22,30.05,13,4,26,0.00
2013-3-21,45.0,37.0,24.0,23.0,17.1,11.0,75,46,28,30.11,29.95,7,2,13,0.00
2013-3-22,51.0,43.1,36.0,44.0,33.3,25.0,92,70,49,30.00,29.90,7,3,13,0.01
2013-3-23,56.0,49.2,45.0,49.0,44.6,42.0,94,85,66,29.95,29.70,8,3,14,0.21
2013-3-24,51.0,45.9,37.0,50.0,41.3,26.0,98,85,63,29.86,29.50,18,7,36,0.31
2013-3-25,38.0,35.5,34.0,28.0,25.6,23.0,74,67,60,30.19,29.85,13,8,28,0.02
2013-3-26,42.0,36.0,29.0,30.0,27.7,26.0,91,73,53,30.35,30.19,8,4,15,0.00
2013-3-27,54.0,40.1,25.0,34.0,27.5,23.0,95,65,36,30.41,30.30,8,2,15,0.00
2013-3-28,66.0,51.1,35.0,36.0,31.5,28.0,89,51,26,30.36,30.24,5,1,11,0.00
2013-3-29,54.0,49.9,47.0,49.0,40.7,31.0,96,72,45,30.27,30.16,6,2,12,0.04
2013-3-30,56.0,49.9,43.0,55.0,47.7,-99.9,98,96,90,30.20,29.92,5,2,9,0.25
2013-3-31,63.0,56.0,47.0,56.0,53.1,45.0,99,91,64,29.97,29.88,9,2,18,0.29
2013-4-1,62.0,51.7,40.0,46.0,40.4,33.0,99,69,41,30.15,29.93,9,3,17,0.16
2013-4-2,50.0,44.7,41.0,34.0,27.9,23.0,74,52,39,30.28,30.13,7,4,16,0.00
2013-4-3,54.0,47.4,40.0,33.0,23.8,18.0,74,41,27,30.26,30.14,11,5,18,0.00
2013-4-4,49.0,44.6,40.0,45.0,39.3,26.0,97,84,40,30.14,29.99,6,3,11,0.43
2013-4-5,67.0,52.8,40.0,46.0,40.6,31.0,99,70,29,30.15,30.03,7,2,13,0.11
2013-4-6,77.0,60.8,42.0,44.0,39.8,34.0,95,53,22,30.11,29.92,10,4,22,0.00
2013-4-7,74.0,66.1,60.0,54.0,48.9,42.0,69,55,40,30.04,29.94,9,5,17,0.00
2013-4-8,80.0,68.6,59.0,58.0,54.3,50.0,77,62,40,30.00,29.88,12,4,22,0.00
2013-4-9,82.0,72.4,66.0,65.0,62.2,57.0,83,71,55,30.04,29.90,11,5,21,0.00
2013-4-10,84.0,76.6,71.0,65.0,63.2,60.0,79,64,48,29.98,29.72,11,6,22,0.00
2013-4-11,77.0,57.9,46.0,65.0,55.2,43.0,97,91,61,29.78,29.62,11,4,20,4.22
2013-4-12,65.0,52.1,39.0,44.0,41.0,36.0,98,69,42,29.99,29.78,10,3,21,0.10
2013-4-13,71.0,56.4,41.0,44.0,38.2,34.0,90,54,28,30.11,29.95,6,2,11,0.00
2013-4-14,71.0,66.2,57.0,53.0,49.6,44.0,71,56,41,29.89,29.77,15,7,26,0.00
2013-4-15,83.0,70.2,58.0,62.0,57.0,52.0,87,65,43,29.94,29.84,8,5,19,0.00
2013-4-16,85.0,74.6,67.0,70.0,66.7,60.0,92,77,58,30.08,29.94,9,4,17,0.00
2013-4-17,88.0,78.0,69.0,70.0,66.5,63.0,92,70,47,30.10,29.89,10,4,17,0.00
2013-4-18,83.0,73.6,47.0,68.0,62.8,45.0,95,71,47,29.89,29.60,13,8,30,1.79
2013-4-19,52.0,46.0,43.0,45.0,35.9,32.0,94,68,49,30.12,29.77,10,5,21,1.84
2013-4-20,65.0,51.7,35.0,40.0,35.2,31.0,95,58,30,30.28,30.12,7,2,14,0.00
2013-4-21,70.0,56.4,40.0,39.0,34.3,28.0,87,49,22,30.37,30.20,9,3,18,0.00
2013-4-22,75.0,61.5,44.0,47.0,43.2,37.0,86,54,33,30.23,30.04,9,3,18,0.00
2013-4-23,76.0,66.4,56.0,59.0,54.8,47.0,88,67,51,30.08,29.91,10,5,23,0.00
2013-4-24,69.0,50.3,39.0,62.0,45.0,37.0,95,83,63,30.29,29.85,10,4,23,1.19
2013-4-25,68.0,50.7,33.0,44.0,37.9,32.0,98,68,31,30.39,30.28,5,1,11,0.01
2013-4-26,65.0,52.6,45.0,51.0,45.5,40.0,96,78,41,30.45,30.20,8,3,17,0.96
2013-4-27,67.0,58.5,51.0,65.0,56.8,50.0,97,94,88,30.29,29.88,8,4,18,1.84
2013-4-28,63.0,58.9,50.0,62.0,55.5,49.0,97,89,77,29.98,29.91,5,2,12,0.13
2013-4-29,79.0,62.2,44.0,57.0,52.2,43.0,99,74,42,30.02,29.89,5,1,9,0.00
2013-4-30,84.0,69.1,55.0,57.0,53.4,49.0,94,62,32,29.98,29.91,7,2,13,0.00
2013-5-1,81.0,71.1,63.0,63.0,58.0,53.0,81,64,48,30.08,29.97,9,3,19,0.00
2013-5-2,77.0,67.7,59.0,63.0,59.1,56.0,90,75,56,30.13,30.02,6,2,11,0.00
2013-5-3,70.0,57.0,42.0,60.0,52.1,40.0,96,85,67,30.02,29.83,15,6,27,1.97
2013-5-4,59.0,47.5,36.0,47.0,40.5,35.0,97,79,45,29.98,29.89,5,2,10,1.34
2013-5-5,62.0,52.7,47.0,49.0,46.5,43.0,96,81,56,29.92,29.85,8,3,15,0.02
2013-5-6,63.0,57.0,51.0,59.0,54.1,49.0,96,90,82,29.93,29.82,9,3,15,0.01
2013-5-7,73.0,62.8,54.0,59.0,55.7,53.0,98,80,53,30.01,29.92,8,2,13,0.01
2013-5-8,81.0,67.6,52.0,61.0,55.4,50.0,97,69,34,30.07,29.98,5,1,11,0.01
2013-5-9,82.0,71.4,58.0,63.0,59.5,56.0,94,68,48,30.08,29.95,11,3,20,0.00
2013-5-10,75.0,67.2,63.0,69.0,62.3,-99.9,97,89,68,29.97,29.86,13,3,25,1.58
2013-5-11,72.0,64.1,59.0,65.0,55.2,-99.9,96,76,49,30.08,29.93,7,3,16,0.24
2013-5-12,64.0,56.8,46.0,55.0,37.0,29.0,83,51,28,30.22,30.08,8,3,16,0.01
2013-5-13,74.0,59.0,40.0,50.0,42.2,35.0,96,60,28,30.27,30.13,7,1,12,0.00
2013-5-14,86.0,73.0,58.0,60.0,54.4,49.0,75,54,36,30.14,30.00,12,4,20,0.00
2013-5-15,86.0,76.1,67.0,57.0,52.5,43.0,65,46,24,30.11,29.96,9,4,20,0.00
2013-5-16,82.0,68.1,68.0,63.0,39.2,-99.9,76,61,39,30.01,29.93,7,3,15,0.00
2013-5-17,77.0,68.4,65.0,69.0,60.8,-99.9,96,87,71,29.97,29.90,7,2,13,0.46
2013-5-18,86.0,74.7,64.0,74.0,68.3,63.0,99,83,54,30.01,29.91,4,2,9,0.06
2013-5-19,89.0,79.9,72.0,72.0,70.1,65.0,95,75,46,29.98,29.88,10,4,19,0.00
2013-5-20,89.0,79.9,71.0,72.0,69.8,68.0,93,73,50,29.98,29.85,9,5,16,0.00
2013-5-21,81.0,71.0,64.0,71.0,66.6,62.0,97,86,65,30.02,29.82,10,4,26,2.18
2013-5-22,79.0,70.2,64.0,67.0,63.9,59.0,96,82,53,29.90,29.75,11,3,17,1.79
2013-5-23,78.0,71.1,61.0,63.0,59.4,55.0,95,68,49,30.11,29.89,10,3,20,0.02
2013-5-24,73.0,62.9,53.0,57.0,50.2,44.0,90,66,37,30.32,30.11,10,4,18,0.00
2013-5-25,78.0,64.8,49.0,55.0,51.0,48.0,96,65,35,30.33,30.15,5,1,11,0.00
2013-5-26,86.0,71.5,54.0,58.0,54.9,51.0,93,61,31,30.21,30.09,6,2,11,0.00
2013-5-27,87.0,75.0,61.0,66.0,60.1,54.0,87,62,34,30.11,29.97,8,3,19,0.00
2013-5-28,88.0,78.8,72.0,69.0,61.9,55.0,75,58,33,30.06,29.97,10,5,21,0.00
2013-5-29,88.0,77.8,64.0,68.0,62.8,57.0,82,61,39,30.07,29.95,10,4,17,0.00
2013-5-30,87.0,78.0,68.0,71.0,68.7,65.0,97,74,56,30.05,29.93,22,5,40,0.42
2013-5-31,86.0,75.4,65.0,75.0,70.6,64.0,97,86,65,30.05,29.87,8,4,24,2.39
2013-6-1,79.0,73.0,66.0,72.0,68.8,65.0,97,87,76,29.97,29.82,9,4,21,0.47
2013-6-2,79.0,71.6,64.0,68.0,65.4,60.0,98,82,55,29.96,29.90,7,2,14,0.03
2013-6-3,79.0,69.2,60.0,64.0,60.9,59.0,97,77,51,30.03,29.93,6,2,11,0.01
2013-6-4,86.0,71.9,58.0,64.0,60.8,56.0,94,71,43,30.04,29.94,4,1,8,0.00
2013-6-5,87.0,74.7,67.0,73.0,68.7,63.0,97,82,60,29.98,29.82,7,2,12,1.67
2013-6-6,81.0,74.4,68.0,70.0,67.4,66.0,94,80,63,29.83,29.76,8,2,12,0.01
2013-6-7,81.0,72.1,63.0,67.0,62.4,57.0,87,73,45,29.89,29.77,7,2,14,0.00
2013-6-8,85.0,72.0,58.0,65.0,58.2,49.0,97,66,34,30.00,29.87,4,1,9,0.00
2013-6-9,87.0,72.5,65.0,74.0,66.6,59.0,97,83,58,30.01,29.81,13,3,27,1.57
2013-6-10,90.0,78.1,67.0,73.0,68.0,64.0,98,75,44,29.92,29.85,11,4,22,1.03
2013-6-11,95.0,84.8,73.0,76.0,72.7,70.0,89,69,48,30.01,29.92,6,2,14,0.00
2013-6-12,95.0,85.7,76.0,77.0,74.2,72.0,88,70,52,30.05,29.89,8,4,15,0.00
2013-6-13,90.0,81.7,71.0,77.0,71.0,65.0,85,71,52,29.96,29.87,11,5,20,0.00
2013-6-14,84.0,74.6,62.0,67.0,61.8,57.0,96,67,43,30.05,29.94,10,2,18,0.00
2013-6-15,90.0,76.3,62.0,68.0,63.9,60.0,97,69,43,30.09,29.97,6,1,11,0.00
2013-6-16,87.0,78.9,70.0,74.0,69.9,66.0,91,75,58,30.04,29.95,5,1,9,0.00
2013-6-17,86.0,76.7,71.0,76.0,71.3,67.0,97,84,67,29.98,29.86,7,2,15,1.23
2013-6-18,86.0,75.2,68.0,71.0,68.7,66.0,98,82,55,29.97,29.82,7,2,14,1.29
2013-6-19,91.0,79.2,66.0,70.0,66.9,63.0,97,70,41,30.05,29.95,2,0,7,0.00
2013-6-20,92.0,79.1,68.0,71.0,68.6,65.0,96,73,43,30.14,30.05,0,0,0,0.00
2013-6-22,91.0,86.8,76.0,72.0,69.5,68.0,83,58,47,30.16,30.04,7,3,13,0.00
2013-6-23,91.0,81.4,70.0,72.0,68.7,65.0,89,67,45,30.12,30.01,7,2,11,0.00
2013-6-24,94.0,83.5,75.0,74.0,71.6,69.0,88,69,47,30.14,30.02,7,3,12,0.00
2013-6-25,92.0,83.4,76.0,76.0,72.8,70.0,88,72,56,30.08,29.94,7,3,14,0.00
2013-6-26,92.0,84.0,75.0,75.0,72.2,69.0,86,69,52,29.98,29.82,10,4,20,0.00
2013-6-27,98.0,87.0,79.0,77.0,71.4,65.0,80,62,35,29.89,29.82,9,3,15,0.00
2013-6-28,90.0,80.0,72.0,75.0,70.6,68.0,93,75,51,29.87,29.69,10,3,24,0.15
2013-6-29,87.0,78.7,67.0,68.0,62.2,56.0,88,59,35,29.76,29.66,9,3,17,0.01
2013-6-30,80.0,71.5,62.0,66.0,63.0,60.0,93,76,57,29.82,29.70,7,2,15,0.00
2013-7-1,73.0,68.1,65.0,68.0,65.5,63.0,96,91,79,29.91,29.80,6,2,13,0.26
2013-7-2,81.0,71.9,66.0,67.0,65.0,63.0,96,80,56,30.03,29.89,5,2,11,0.04
2013-7-3,84.0,72.6,60.0,67.0,63.7,59.0,97,76,49,30.10,30.02,4,1,8,0.00
2013-7-4,83.0,74.0,66.0,72.0,68.5,65.0,97,84,64,30.06,29.97,7,2,21,0.09
2013-7-5,85.0,74.3,68.0,71.0,69.1,67.0,97,85,61,30.09,30.00,6,2,14,0.46
2013-7-6,87.0,75.3,69.0,74.0,69.9,67.0,97,85,59,30.09,29.98,6,2,12,0.78
2013-7-7,91.0,80.0,71.0,74.0,71.2,68.0,94,76,52,30.11,30.03,5,2,9,0.09
2013-7-8,91.0,79.9,72.0,75.0,71.4,-99.9,97,79,54,30.15,30.06,5,2,9,0.00
2013-7-9,94.0,84.5,73.0,77.0,73.6,71.0,95,72,51,30.13,30.00,6,2,15,0.00
2013-7-10,93.0,84.2,79.0,78.0,72.2,-99.9,83,70,56,30.03,29.88,7,2,14,0.00
2013-7-11,90.0,81.8,73.0,77.0,71.9,63.0,96,74,50,29.98,29.91,9,3,17,0.00
2013-7-12,85.0,74.7,64.0,68.0,62.7,60.0,88,68,46,30.03,29.96,9,3,17,0.00
2013-7-13,86.0,76.5,62.0,65.0,62.2,60.0,93,64,45,30.03,29.96,8,2,15,0.00
2013-7-14,87.0,75.3,69.0,75.0,70.4,65.0,96,85,59,30.11,29.99,12,2,21,0.53
2013-7-15,90.0,79.8,71.0,76.0,72.4,70.0,97,80,57,30.21,30.10,8,3,16,0.01
2013-7-16,93.0,81.5,72.0,78.0,73.1,70.0,94,78,49,30.29,30.20,6,2,18,0.16
2013-7-17,94.0,84.1,72.0,78.0,74.4,71.0,98,75,50,30.31,30.16,6,1,9,0.16
2013-7-18,94.0,79.2,72.0,79.0,74.5,70.0,96,87,56,30.19,30.05,10,1,17,0.34
2013-7-19,90.0,82.4,69.0,77.0,74.4,68.0,98,78,61,30.07,29.94,5,2,9,0.34
2013-7-20,93.0,81.7,71.0,76.0,72.0,-99.9,96,75,52,29.98,29.84,8,2,34,0.74
2013-7-21,90.0,76.3,72.0,77.0,72.7,70.0,97,89,61,29.97,29.89,13,2,24,1.05
2013-7-22,86.0,76.3,68.0,78.0,72.8,67.0,97,89,76,29.95,29.85,8,3,19,0.93
2013-7-23,88.0,78.3,71.0,75.0,72.8,69.0,94,84,64,29.96,29.81,6,2,15,0.26
2013-7-24,86.0,77.3,70.0,74.0,71.0,66.0,98,82,64,29.97,29.84,7,2,13,0.06
2013-7-25,82.0,73.1,63.0,68.0,64.4,61.0,95,76,50,30.06,29.96,8,2,12,0.00
2013-7-26,84.0,73.6,62.0,68.0,64.6,61.0,98,76,49,30.06,29.95,5,1,10,0.00
2013-7-27,86.0,76.6,70.0,71.0,67.7,64.0,95,76,51,30.00,29.88,6,2,12,0.00
2013-7-28,79.0,71.8,64.0,66.0,60.2,56.0,87,68,48,30.08,29.96,6,2,10,0.00
2013-7-29,84.0,72.1,63.0,68.0,63.0,60.0,93,75,47,30.16,30.06,8,2,13,0.00
2013-7-30,79.0,73.7,68.0,75.0,69.1,62.0,96,86,68,30.15,30.03,6,2,14,0.51
2013-7-31,89.0,78.1,73.0,78.0,74.2,71.0,97,88,70,30.04,29.93,10,2,17,0.59
2013-8-1,84.0,76.7,71.0,73.0,70.3,68.0,99,83,58,30.05,29.97,7,2,13,0.01
2013-8-2,88.0,77.8,65.0,73.0,68.0,64.0,98,75,46,30.03,29.96,5,1,9,0.01
2013-8-3,80.0,75.2,72.0,76.0,71.8,68.0,98,90,80,30.09,29.94,6,1,12,0.28
2013-8-4,86.0,77.5,70.0,74.0,70.9,68.0,99,82,59,30.11,30.03,7,2,12,0.01
2013-8-5,77.0,73.2,69.0,73.0,68.3,64.0,94,85,72,30.09,29.92,4,2,9,0.23
2013-8-6,83.0,76.3,73.0,76.0,73.6,71.0,97,92,80,29.98,29.89,7,2,14,0.48
2013-8-7,93.0,81.7,74.0,79.0,75.4,72.0,96,82,58,29.96,29.86,5,2,11,0.07
2013-8-8,92.0,82.1,75.0,80.0,76.6,73.0,97,84,65,29.96,29.87,7,2,14,0.00
2013-8-9,94.0,83.6,75.0,79.0,76.0,73.0,95,79,58,30.02,29.93,6,2,11,0.00
2013-8-10,85.0,79.2,75.0,77.0,74.2,72.0,96,85,67,30.12,30.01,6,2,14,0.04
2013-8-11,87.0,78.3,74.0,77.0,74.3,72.0,96,88,67,30.14,30.04,6,1,11,0.11
2013-8-12,89.0,77.7,72.0,79.0,74.3,69.0,97,90,70,30.08,29.91,5,1,18,0.48
2013-8-13,84.0,76.4,72.0,75.0,69.1,-99.9,99,84,65,30.00,29.93,7,2,12,0.28
2013-8-14,76.0,68.5,63.0,68.0,57.3,-99.9,88,72,52,30.09,30.00,8,4,16,0.00
2013-8-15,80.0,60.2,56.0,64.0,39.9,-99.9,96,70,55,30.09,30.00,6,2,11,0.00
2013-8-16,79.0,68.4,63.0,71.0,60.1,-99.9,93,83,69,30.08,30.00,4,1,9,0.06
2013-8-17,80.0,72.8,69.0,69.0,68.0,67.0,96,85,69,30.10,30.03,6,2,13,0.07
2013-8-19,86.0,77.8,71.0,72.0,70.5,69.0,94,79,57,30.06,30.01,3,1,7,0.00
2013-8-20,88.0,75.0,67.0,76.0,68.4,-99.9,98,86,58,30.11,30.02,4,1,7,0.17
2013-8-21,90.0,80.6,70.0,76.0,71.7,68.0,98,77,49,30.15,30.05,4,1,7,0.17
2013-8-22,90.0,82.2,72.0,77.0,74.3,71.0,98,79,59,30.14,30.01,5,1,8,0.00
2013-8-23,92.0,80.2,70.0,77.0,72.5,69.0,98,80,51,30.08,29.99,5,1,9,0.00
2013-8-24,90.0,79.1,70.0,75.0,70.0,-99.9,97,78,55,30.16,30.06,7,2,14,0.00
2013-8-25,89.0,79.9,73.0,75.0,72.3,70.0,94,79,57,30.27,30.16,7,2,11,0.00
2013-8-26,91.0,78.8,70.0,72.0,69.7,67.0,93,75,48,30.27,30.13,4,1,8,0.00
2013-8-27,88.0,75.4,66.0,71.0,66.3,64.0,93,75,53,30.15,30.07,6,1,10,0.00
2013-9-1,81.0,75.6,70.0,75.0,71.3,68.0,97,87,75,29.96,29.81,7,2,18,1.62
2013-9-2,90.0,78.9,72.0,78.0,73.9,71.0,98,86,63,29.91,29.84,5,1,11,0.03
2013-9-3,85.0,75.5,66.0,72.0,66.8,63.0,99,77,48,30.03,29.91,6,2,12,0.01
2013-9-4,84.0,72.7,62.0,69.0,64.9,61.0,98,79,53,30.14,30.02,5,1,12,0.01
2013-9-5,86.0,73.3,61.0,69.0,64.9,60.0,98,77,50,30.17,30.10,5,1,11,0.01
2013-9-6,91.0,75.6,63.0,70.0,66.9,62.0,97,77,47,30.16,30.04,3,1,8,0.01
2013-9-7,92.0,76.5,65.0,73.0,65.8,-99.9,97,75,46,30.08,29.96,4,1,7,0.00
2013-9-8,97.0,80.4,68.0,75.0,70.6,67.0,96,75,39,30.00,29.90,3,1,7,0.00
2013-9-9,94.0,83.2,74.0,75.0,71.8,69.0,91,70,47,30.04,29.94,5,2,11,0.28
2013-9-10,94.0,79.6,74.0,77.0,72.4,70.0,92,80,54,30.13,30.03,5,2,10,0.06
2013-9-11,90.0,79.1,73.0,77.0,74.1,71.0,97,86,61,30.19,30.07,11,1,23,1.76
2013-9-12,92.0,79.7,73.0,75.0,72.2,68.0,97,79,55,30.07,29.93,10,1,18,0.19
2013-9-13,78.0,70.9,61.0,72.0,61.0,55.0,98,73,47,30.03,29.96,8,3,15,0.01
2013-9-14,75.0,62.0,52.0,57.0,51.3,-99.9,97,73,48,30.11,30.02,7,2,14,0.00
2013-9-15,85.0,65.2,52.0,62.0,56.0,51.0,98,78,35,30.09,30.04,3,0,9,0.01
2013-9-16,85.0,72.0,59.0,69.0,63.1,57.0,96,76,41,30.16,30.08,7,2,13,0.01
2013-9-17,88.0,74.8,65.0,70.0,67.4,64.0,96,79,53,30.16,30.05,4,1,7,0.00
2013-9-18,73.0,71.5,70.0,70.0,68.7,68.0,93,90,87,30.11,30.05,4,2,10,0.00
2013-9-19,88.0,78.0,69.0,73.0,69.5,67.0,95,77,56,30.11,29.97,5,3,11,0.00
2013-9-20,83.0,74.5,70.0,74.0,69.7,66.0,98,86,67,29.98,29.81,6,2,12,1.97
2013-9-21,74.0,66.5,56.0,70.0,57.3,-99.9,98,77,50,29.90,29.79,8,4,15,1.56
2013-9-22,76.0,62.8,50.0,58.0,53.8,49.0,99,76,47,29.96,29.87,8,2,14,0.03
2013-9-23,81.0,66.4,52.0,64.0,58.3,51.0,97,78,49,29.98,29.89,4,1,11,0.01
2013-9-24,74.0,67.8,59.0,70.0,65.7,58.0,98,93,87,29.93,29.81,5,2,13,0.01
2013-9-25,85.0,74.3,68.0,72.0,68.7,65.0,98,84,54,29.85,29.78,3,1,8,0.01
2013-9-26,83.0,71.0,62.0,69.0,65.4,61.0,99,84,59,30.00,29.85,7,1,13,0.01
2013-9-27,88.0,71.8,61.0,68.0,63.9,60.0,98,79,42,30.10,30.00,3,0,7,0.01
2013-9-28,81.0,70.3,62.0,65.0,58.8,-99.9,93,71,49,30.14,30.03,7,2,13,0.01
2013-9-29,67.0,65.1,64.0,64.0,61.8,59.0,96,89,78,30.06,29.97,5,2,12,0.75
2013-9-30,68.0,66.1,64.0,66.0,64.5,63.0,98,94,90,30.00,29.95,8,3,15,0.02
2013-10-1,75.0,72.3,71.0,72.0,70.2,69.0,96,93,87,30.06,30.02,1,0,3,0.00
2013-10-2,84.0,75.3,69.0,71.0,69.1,66.0,96,82,56,30.10,30.03,4,1,9,0.00
2013-10-3,85.0,76.7,69.0,70.0,68.7,66.0,94,77,58,30.07,29.96,6,3,13,0.00
2013-10-4,85.0,75.8,68.0,74.0,70.5,66.0,96,84,66,30.07,29.98,8,2,15,0.00
2013-10-5,86.0,78.2,72.0,76.0,72.4,70.0,94,83,66,30.03,29.85,6,2,12,0.14
2013-10-6,78.0,62.6,54.0,72.0,55.7,49.0,97,79,55,29.98,29.83,8,2,18,2.36
2013-10-7,67.0,55.9,46.0,53.0,49.6,45.0,98,81,55,30.11,29.94,7,2,13,0.03
2013-10-8,71.0,59.6,49.0,53.0,50.7,48.0,97,75,50,30.15,30.07,8,3,15,0.01
2013-10-9,79.0,66.5,53.0,66.0,60.5,50.0,97,82,64,30.15,30.07,7,2,14,0.01
2013-10-10,81.0,66.9,56.0,67.0,61.4,55.0,99,85,52,30.15,30.01,3,0,8,0.00
2013-10-11,83.0,67.4,56.0,66.0,60.1,55.0,99,81,47,30.07,29.97,4,1,10,0.01
2013-10-12,78.0,65.6,58.0,70.0,61.1,-99.9,98,89,71,30.12,30.00,4,1,7,0.07
2013-10-13,79.0,68.6,61.0,67.0,63.4,54.0,99,84,63,30.26,30.13,6,2,13,0.01
2013-10-14,81.0,66.7,54.0,66.0,58.7,51.0,93,77,52,30.23,30.07,5,1,9,0.00
2013-10-15,74.0,68.5,66.0,67.0,64.4,63.0,97,87,75,30.06,29.95,8,3,13,0.17
2013-10-16,67.0,61.1,57.0,66.0,59.9,56.0,98,96,90,30.01,29.94,7,2,14,0.29
2013-10-17,66.0,58.0,48.0,57.0,53.6,47.0,97,86,61,30.01,29.93,5,2,12,0.07
2013-10-18,71.0,55.6,42.0,54.0,48.7,42.0,99,81,45,30.07,29.93,3,1,7,0.05
2013-10-19,59.0,51.3,40.0,53.0,45.5,-99.9,97,84,66,30.07,29.90,8,2,14,0.05
2013-10-20,67.0,51.3,38.0,47.0,42.4,37.0,98,76,38,30.11,29.99,4,1,9,0.03
2013-10-21,72.0,56.0,40.0,54.0,47.1,39.0,98,75,44,30.06,29.97,7,1,12,0.02
2013-10-22,65.0,56.0,50.0,54.0,47.0,42.0,95,74,44,30.06,29.88,6,2,10,0.04
2013-10-23,57.0,49.2,41.0,46.0,40.2,36.0,95,73,47,30.14,29.91,8,3,14,0.02
2013-10-24,57.0,49.0,38.0,45.0,39.4,31.0,95,71,51,30.35,30.11,10,2,16,0.00
2013-10-25,53.0,43.5,32.0,36.0,31.7,29.0,97,66,41,30.51,30.32,8,2,14,0.00
2013-10-26,63.0,49.1,32.0,48.0,37.1,-99.9,97,68,46,30.32,30.08,7,2,13,0.00
2013-10-27,68.0,59.3,52.0,59.0,53.9,47.0,96,83,66,30.11,30.02,5,1,10,0.07
2013-10-28,71.0,58.8,51.0,59.0,54.4,-99.9,97,90,62,30.23,30.05,3,1,7,0.09
2013-10-29,72.0,61.7,49.0,66.0,58.5,48.0,98,90,77,30.25,30.12,5,1,10,0.01
2013-10-30,74.0,68.3,63.0,66.0,63.2,60.0,92,84,73,30.18,30.00,6,3,11,0.01
2013-11-12,56.0,40.5,30.0,49.0,30.0,19.0,91,68,41,30.64,30.19,15,7,24,0.01
2013-11-13,50.0,34.2,25.0,26.0,23.3,19.0,88,67,31,30.70,30.42,5,1,9,0.01
2013-11-14,59.0,41.9,26.0,27.0,22.7,18.0,90,52,23,30.42,30.17,7,2,14,0.00
2013-11-15,58.0,49.8,36.0,52.0,42.5,25.0,91,77,48,30.17,30.03,6,2,16,0.04
2013-11-16,66.0,59.3,55.0,64.0,55.6,-99.9,96,91,88,30.06,29.88,9,4,21,0.02
2013-11-17,75.0,67.1,52.0,70.0,64.2,48.0,96,90,82,29.96,29.68,13,6,27,1.05
2013-11-18,62.0,52.0,40.0,47.0,37.6,29.0,97,60,37,30.26,29.96,7,2,15,0.32
2013-12-29,54.0,44.0,34.0,43.0,39.0,29.0,98,84,64,30.17,29.93,9,4,18,0.20
2013-12-30,33.0,29.7,25.0,29.0,25.0,23.0,91,82,78,30.32,30.18,5,2,11,0.02
2013-12-31,49.0,34.0,23.0,30.0,26.3,21.0,97,75,46,30.43,30.32,3,1,8,0.00
2014-1-1,55.0,41.6,27.0,42.0,31.8,25.0,95,71,43,30.31,29.94,7,2,15,0.00
2014-1-2,48.0,31.9,20.0,45.0,26.5,13.0,96,80,64,30.42,29.87,13,6,25,0.17